Time;durP1;ratioP1;P1;durP2;ratioP2;P2;SDS_P1;SDS_P2;PMS_P1;PMS_P2;Temp;Humidity;BMP_temperature;BMP_pressure;BME280_temperature;BME280_humidity;BME280_pressure;Samples;Min_cycle;Max_cycle;Signal;HPM_P1;HPM_P2
2021/05/25 00:00:14;;;;;;;5.57;4.97;;;12.20;99.90;;;;;;5077223;28;20223;-55
2021/05/25 00:02:41;;;;;;;6.40;5.00;;;12.30;99.90;;;;;;5074996;28;20186;-50
2021/05/25 00:05:07;;;;;;;5.93;5.33;;;12.30;99.90;;;;;;5075142;28;20247;-49
2021/05/25 00:07:33;;;;;;;5.37;4.73;;;12.40;99.90;;;;;;5075315;28;20198;-51
2021/05/25 00:09:59;;;;;;;5.70;4.67;;;12.40;99.90;;;;;;5075960;28;20246;-50
2021/05/25 00:12:25;;;;;;;6.97;6.13;;;12.60;99.90;;;;;;5076085;28;20213;-52
2021/05/25 00:14:50;;;;;;;4.80;4.40;;;12.60;99.90;;;;;;5074915;28;20190;-54
2021/05/25 00:17:16;;;;;;;5.00;4.50;;;12.80;99.90;;;;;;5076320;28;20191;-54
2021/05/25 00:19:41;;;;;;;5.40;4.77;;;12.90;99.90;;;;;;5075169;28;20258;-49
2021/05/25 00:22:07;;;;;;;6.53;5.53;;;13.00;99.90;;;;;;5075737;28;20167;-48
2021/05/25 00:24:33;;;;;;;5.50;4.20;;;13.00;99.90;;;;;;5076342;28;20233;-51
2021/05/25 00:26:59;;;;;;;4.53;4.07;;;13.00;99.90;;;;;;5075672;28;20197;-50
2021/05/25 00:29:24;;;;;;;4.50;4.10;;;13.10;99.90;;;;;;5075605;28;20285;-55
2021/05/25 00:31:50;;;;;;;6.70;5.33;;;13.10;99.90;;;;;;5074445;28;20750;-53
2021/05/25 00:34:16;;;;;;;5.27;4.37;;;13.10;99.90;;;;;;5075657;28;20175;-47
2021/05/25 00:36:42;;;;;;;4.40;4.00;;;13.10;99.90;;;;;;5076200;28;20186;-49
2021/05/25 00:39:08;;;;;;;6.37;3.30;;;13.00;99.90;;;;;;5074475;28;20225;-49
2021/05/25 00:41:36;;;;;;;5.17;4.20;;;13.00;99.90;;;;;;5075939;28;20178;-50
2021/05/25 00:44:03;;;;;;;5.83;3.90;;;13.10;99.90;;;;;;5075582;28;20183;-49
2021/05/25 00:46:28;;;;;;;4.70;4.13;;;13.10;99.90;;;;;;5074364;28;20231;-53
2021/05/25 00:48:54;;;;;;;4.53;4.10;;;13.20;99.90;;;;;;5075519;28;20206;-53
2021/05/25 00:51:19;;;;;;;5.60;4.40;;;13.20;99.90;;;;;;5074548;28;20174;-54
2021/05/25 00:53:45;;;;;;;5.37;4.53;;;13.30;99.90;;;;;;5075923;28;20219;-48
2021/05/25 00:56:12;;;;;;;5.00;4.50;;;13.40;99.90;;;;;;5075104;28;20199;-51
2021/05/25 00:58:37;;;;;;;4.80;4.40;;;13.40;99.90;;;;;;5075025;28;20652;-49
2021/05/25 01:01:04;;;;;;;5.57;5.00;;;13.50;99.90;;;;;;5074834;28;20179;-48
2021/05/25 01:03:29;;;;;;;5.10;4.60;;;13.40;99.90;;;;;;5074287;28;20177;-55
2021/05/25 01:05:55;;;;;;;5.20;4.70;;;13.40;99.90;;;;;;5073726;28;20182;-53
2021/05/25 01:08:21;;;;;;;4.60;4.20;;;13.40;99.90;;;;;;5074019;28;20198;-54
2021/05/25 01:11:00;;;;;;;4.67;4.20;;;13.40;99.90;;;;;;5074703;28;20594;-49
2021/05/25 01:13:27;;;;;;;5.07;4.50;;;13.40;99.90;;;;;;5073527;28;20667;-51
2021/05/25 01:15:52;;;;;;;4.97;4.43;;;13.40;99.90;;;;;;5074749;28;20649;-47
2021/05/25 01:18:18;;;;;;;5.73;5.20;;;13.30;99.90;;;;;;5074539;28;20171;-55
2021/05/25 01:20:47;;;;;;;5.50;5.00;;;13.30;99.90;;;;;;5074284;28;20258;-50
2021/05/25 01:23:13;;;;;;;6.07;5.53;;;13.10;99.90;;;;;;5075137;28;20183;-54
2021/05/25 01:25:45;;;;;;;5.40;4.90;;;13.00;99.90;;;;;;5074682;28;20178;-53
2021/05/25 01:28:11;;;;;;;5.93;5.40;;;13.00;99.90;;;;;;5074859;28;20303;-50
2021/05/25 01:30:40;;;;;;;6.00;5.50;;;12.80;99.90;;;;;;5074911;28;20255;-48
2021/05/25 01:33:07;;;;;;;6.27;5.70;;;12.70;99.90;;;;;;5073114;28;20276;-55
2021/05/25 01:35:33;;;;;;;6.00;5.40;;;12.60;99.90;;;;;;5074150;28;20261;-48
2021/05/25 01:38:00;;;;;;;7.00;5.70;;;12.50;99.90;;;;;;5073208;28;20206;-49
2021/05/25 01:40:27;;;;;;;5.60;5.10;;;12.50;99.90;;;;;;5074568;28;20178;-55
2021/05/25 01:42:54;;;;;;;5.37;4.87;;;12.50;99.90;;;;;;5074369;28;20265;-55
2021/05/25 01:45:24;;;;;;;4.53;4.13;;;12.40;99.90;;;;;;5073703;28;20187;-51
2021/05/25 01:47:50;;;;;;;5.40;4.30;;;12.30;99.90;;;;;;5074702;28;20198;-50
2021/05/25 01:50:17;;;;;;;4.23;3.70;;;12.10;99.90;;;;;;5073658;28;20232;-54
2021/05/25 01:52:50;;;;;;;3.60;3.30;;;12.00;99.90;;;;;;5074854;28;20185;-49
2021/05/25 01:55:31;;;;;;;6.47;3.40;;;11.80;99.90;;;;;;5074349;28;20182;-49
2021/05/25 01:58:05;;;;;;;3.90;3.13;;;11.70;99.90;;;;;;5074057;28;20284;-56
2021/05/25 02:00:31;;;;;;;4.40;3.47;;;11.60;99.90;;;;;;5074063;28;20171;-49
2021/05/25 02:02:57;;;;;;;6.07;3.10;;;11.60;99.90;;;;;;5072825;28;20209;-49
2021/05/25 02:05:23;;;;;;;3.73;3.10;;;11.50;99.90;;;;;;5074171;28;20515;-54
2021/05/25 02:07:50;;;;;;;3.17;2.80;;;11.50;99.90;;;;;;5073059;28;20597;-51
2021/05/25 02:10:52;;;;;;;4.70;2.77;;;11.50;99.90;;;;;;5074448;28;20553;-50
2021/05/25 02:13:19;;;;;;;1.50;1.40;;;11.30;99.90;;;;;;5051673;28;20194;-49
2021/05/25 02:15:48;;;;;;;1.23;0.80;;;11.10;99.90;;;;;;5050577;28;20195;-55
2021/05/25 02:18:16;;;;;;;4.43;0.97;;;10.90;99.90;;;;;;5051749;28;20179;-49
2021/05/25 02:20:43;;;;;;;1.60;1.00;;;10.70;99.90;;;;;;5050796;28;20218;-48
2021/05/25 02:23:09;;;;;;;1.80;0.70;;;10.60;99.90;;;;;;5051718;28;20182;-49
2021/05/25 02:25:36;;;;;;;5.00;1.20;;;10.50;99.90;;;;;;5051704;28;20234;-52
2021/05/25 02:28:03;;;;;;;0.90;0.70;;;10.50;99.90;;;;;;5051894;28;20268;-49
2021/05/25 02:30:29;;;;;;;2.87;0.80;;;10.40;99.90;;;;;;5051749;28;20183;-54
2021/05/25 02:32:57;;;;;;;0.60;0.60;;;10.50;99.90;;;;;;5050565;28;20193;-54
2021/05/25 02:35:23;;;;;;;4.73;0.90;;;10.30;99.90;;;;;;5052038;28;20214;-49
2021/05/25 02:37:48;;;;;;;1.67;0.70;;;10.30;99.90;;;;;;5050689;28;20344;-49
2021/05/25 02:40:15;;;;;;;2.07;0.90;;;10.20;99.90;;;;;;5052103;28;20191;-48
2021/05/25 02:42:41;;;;;;;2.10;0.60;;;10.20;99.90;;;;;;5051323;28;20252;-49
2021/05/25 02:45:07;;;;;;;0.80;0.70;;;10.10;99.90;;;;;;5051611;28;20570;-48
2021/05/25 02:47:33;;;;;;;1.33;0.87;;;10.10;99.90;;;;;;5068327;28;20750;-53
2021/05/25 02:50:06;;;;;;;2.97;0.90;;;10.20;99.90;;;;;;5077991;28;20170;-54
2021/05/25 02:52:33;;;;;;;1.37;0.90;;;10.20;99.90;;;;;;5076628;28;20185;-47
2021/05/25 02:54:59;;;;;;;1.33;1.00;;;10.20;99.90;;;;;;5077488;28;20177;-52
2021/05/25 02:57:24;;;;;;;3.03;0.70;;;10.30;99.90;;;;;;5077583;28;20538;-50
2021/05/25 02:59:50;;;;;;;0.80;0.70;;;10.30;99.90;;;;;;5077490;28;20529;-49
2021/05/25 03:02:15;;;;;;;1.20;0.67;;;10.40;99.90;;;;;;5076306;28;20198;-49
2021/05/25 03:04:41;;;;;;;0.70;0.70;;;10.60;99.90;;;;;;5077386;28;20177;-49
2021/05/25 03:07:07;;;;;;;0.50;0.50;;;10.70;99.90;;;;;;5077610;28;20204;-55
2021/05/25 03:09:32;;;;;;;0.83;0.67;;;10.70;99.90;;;;;;5076112;28;20661;-49
2021/05/25 03:11:58;;;;;;;0.83;0.77;;;10.80;99.90;;;;;;5077065;28;20471;-51
2021/05/25 03:14:24;;;;;;;0.70;0.70;;;10.80;99.90;;;;;;5077165;28;20171;-50
2021/05/25 03:16:49;;;;;;;1.30;0.67;;;10.80;99.90;;;;;;5077138;28;20195;-49
2021/05/25 03:19:15;;;;;;;1.23;0.80;;;11.60;99.90;;;;;;5077093;28;20278;-51
2021/05/25 03:21:40;;;;;;;1.57;0.63;;;10.80;99.90;;;;;;5076020;28;20202;-51
2021/05/25 03:24:06;;;;;;;0.93;0.90;;;10.90;99.90;;;;;;5077236;28;20171;-51
2021/05/25 03:26:32;;;;;;;0.60;0.60;;;11.10;99.90;;;;;;5076880;28;20202;-50
2021/05/25 03:28:57;;;;;;;1.83;0.90;;;11.10;99.90;;;;;;5075876;28;20206;-50
2021/05/25 03:31:23;;;;;;;1.43;0.80;;;11.00;99.90;;;;;;5076977;28;20612;-52
2021/05/25 03:33:48;;;;;;;0.90;0.83;;;11.10;99.90;;;;;;5075940;28;20205;-55
2021/05/25 03:36:14;;;;;;;0.80;0.80;;;11.10;99.90;;;;;;5076892;28;20190;-56
2021/05/25 03:38:39;;;;;;;1.00;0.87;;;11.10;99.90;;;;;;5081804;28;20201;-50
2021/05/25 03:41:05;;;;;;;2.10;0.70;;;11.00;99.90;;;;;;5094967;28;20589;-47
2021/05/25 03:43:30;;;;;;;1.30;0.90;;;10.90;99.90;;;;;;5095547;28;20200;-49
2021/05/25 03:45:56;;;;;;;1.83;0.87;;;10.80;99.90;;;;;;5094623;28;20223;-50
2021/05/25 03:48:21;;;;;;;0.70;0.70;;;10.70;99.90;;;;;;5095642;28;20204;-49
2021/05/25 03:50:47;;;;;;;1.23;1.00;;;10.70;99.90;;;;;;5094649;28;20608;-50
2021/05/25 03:53:12;;;;;;;2.37;1.00;;;10.70;99.90;;;;;;5095350;28;20256;-51
2021/05/25 03:55:46;;;;;;;1.40;0.90;;;10.70;99.90;;;;;;5094891;28;20204;-55
2021/05/25 04:00:56;;;;;;;2.50;0.97;;;10.70;99.90;;;;;;5095642;28;20246;-47
2021/05/25 04:03:23;;;;;;;0.80;0.80;;;10.60;99.90;;;;;;5094338;28;20178;-52
2021/05/25 04:05:48;;;;;;;0.83;0.83;;;10.60;99.90;;;;;;5095418;28;20162;-50
2021/05/25 04:08:16;;;;;;;0.90;0.90;;;10.50;99.90;;;;;;5095591;28;20568;-47
2021/05/25 04:10:41;;;;;;;3.97;0.93;;;10.50;99.90;;;;;;5095367;28;20180;-53
2021/05/25 04:13:07;;;;;;;1.47;1.00;;;10.40;99.90;;;;;;5094144;28;20556;-49
2021/05/25 04:15:37;;;;;;;0.97;0.87;;;10.20;99.90;;;;;;5093747;28;20173;-52
2021/05/25 04:18:03;;;;;;;1.67;1.10;;;10.10;99.90;;;;;;5094343;28;20221;-50
2021/05/25 04:20:30;;;;;;;2.20;1.07;;;10.20;99.90;;;;;;5094918;28;20521;-50
2021/05/25 04:22:55;;;;;;;1.40;1.27;;;10.20;99.90;;;;;;5095046;28;20276;-50
2021/05/25 04:25:21;;;;;;;2.40;1.30;;;10.20;99.90;;;;;;5094121;28;20269;-49
2021/05/25 04:27:47;;;;;;;3.07;1.40;;;10.30;99.90;;;;;;5094932;28;20201;-47
2021/05/25 04:30:13;;;;;;;3.37;1.20;;;10.30;99.90;;;;;;5094185;28;20166;-49
2021/05/25 04:32:38;;;;;;;1.97;1.20;;;10.30;99.90;;;;;;5094752;28;20253;-48
2021/05/25 04:35:05;;;;;;;1.10;1.00;;;10.30;99.90;;;;;;5094668;28;20232;-49
2021/05/25 04:37:32;;;;;;;1.15;1.05;;;10.20;99.90;;;;;;5081704;28;1078685;-51
2021/05/25 04:39:57;;;;;;;1.53;1.30;;;10.20;99.90;;;;;;5095961;28;20272;-51
2021/05/25 04:42:23;;;;;;;1.40;0.90;;;10.30;99.90;;;;;;5094445;28;20190;-48
2021/05/25 04:44:49;;;;;;;2.83;1.20;;;10.30;99.90;;;;;;5096026;28;20170;-48
2021/05/25 04:47:14;;;;;;;1.33;1.13;;;10.20;99.90;;;;;;5094679;28;20227;-50
2021/05/25 04:49:41;;;;;;;1.53;1.10;;;10.20;99.90;;;;;;5094478;28;20202;-48
2021/05/25 04:52:07;;;;;;;2.03;1.00;;;10.20;99.90;;;;;;5095736;28;20177;-49
2021/05/25 04:54:35;;;;;;;0.93;0.90;;;10.30;99.90;;;;;;5094511;28;20178;-47
2021/05/25 04:57:01;;;;;;;2.63;1.20;;;10.30;99.90;;;;;;5095656;28;20186;-53
2021/05/25 04:59:26;;;;;;;0.90;0.90;;;10.40;99.90;;;;;;5094906;28;20177;-47
2021/05/25 05:01:52;;;;;;;1.93;1.00;;;10.40;99.90;;;;;;5094834;28;20177;-48
2021/05/25 05:04:18;;;;;;;1.33;1.00;;;10.40;99.90;;;;;;5095672;28;20176;-50
2021/05/25 05:06:43;;;;;;;3.10;1.03;;;10.40;99.90;;;;;;5095235;28;20197;-48
2021/05/25 05:09:09;;;;;;;1.97;1.03;;;10.40;99.90;;;;;;5094591;28;20198;-48
2021/05/25 05:11:35;;;;;;;2.20;0.90;;;10.30;99.90;;;;;;5095345;28;20248;-47
2021/05/25 05:14:01;;;;;;;1.80;1.00;;;10.30;99.90;;;;;;5095163;28;20511;-54
2021/05/25 05:16:26;;;;;;;1.90;1.03;;;10.30;99.90;;;;;;5094956;28;20216;-48
2021/05/25 05:18:52;;;;;;;1.20;1.07;;;10.30;99.90;;;;;;5095402;28;20178;-50
2021/05/25 05:21:17;;;;;;;1.53;0.93;;;10.30;99.90;;;;;;5093253;28;20637;-47
2021/05/25 05:23:43;;;;;;;1.50;1.13;;;10.30;99.90;;;;;;5094463;28;20203;-49
2021/05/25 05:26:10;;;;;;;1.70;1.13;;;10.40;99.90;;;;;;5094894;28;20673;-48
2021/05/25 05:28:35;;;;;;;1.20;1.17;;;10.40;99.90;;;;;;5093898;28;20665;-47
2021/05/25 05:31:01;;;;;;;1.23;1.00;;;10.40;99.90;;;;;;5095118;28;20174;-52
2021/05/25 05:33:27;;;;;;;1.50;0.90;;;10.50;99.90;;;;;;5094170;28;20599;-51
2021/05/25 05:35:53;;;;;;;1.80;0.97;;;10.60;99.90;;;;;;5094514;28;20157;-50
2021/05/25 05:38:19;;;;;;;2.33;1.10;;;10.70;99.90;;;;;;5094790;28;20239;-51
2021/05/25 05:40:45;;;;;;;2.27;1.23;;;10.80;99.90;;;;;;5093744;28;20173;-49
2021/05/25 05:43:10;;;;;;;1.17;0.90;;;10.90;99.90;;;;;;5094319;28;20181;-48
2021/05/25 05:45:36;;;;;;;2.63;1.30;;;10.90;99.90;;;;;;5094173;28;20185;-49
2021/05/25 05:48:03;;;;;;;1.10;0.90;;;11.00;99.90;;;;;;5095128;28;20201;-55
2021/05/25 05:50:28;;;;;;;3.83;1.17;;;11.10;99.90;;;;;;5094531;28;20556;-49
2021/05/25 05:52:54;;;;;;;1.90;1.20;;;11.10;99.90;;;;;;5093242;28;20635;-50
2021/05/25 05:55:20;;;;;;;1.23;1.13;;;11.10;99.90;;;;;;5094331;28;20193;-46
2021/05/25 05:57:47;;;;;;;1.20;0.90;;;11.20;99.90;;;;;;5094208;28;20201;-48
2021/05/25 06:00:14;;;;;;;1.13;1.03;;;11.20;99.90;;;;;;5090304;28;20201;-48
2021/05/25 06:02:40;;;;;;;1.30;1.20;;;11.20;99.90;;;;;;5082388;28;20173;-48
2021/05/25 06:05:06;;;;;;;1.83;1.10;;;11.10;99.90;;;;;;5091584;28;20264;-52
2021/05/25 06:07:32;;;;;;;3.50;1.10;;;11.00;99.90;;;;;;5093921;28;20212;-48
2021/05/25 06:10:00;;;;;;;1.83;1.20;;;11.00;99.90;;;;;;5094629;28;20169;-48
2021/05/25 06:12:25;;;;;;;2.10;0.90;;;11.00;99.90;;;;;;5091489;28;20194;-46
2021/05/25 06:14:51;;;;;;;2.43;1.10;;;10.90;99.90;;;;;;5094242;28;20170;-48
2021/05/25 06:17:16;;;;;;;2.13;1.40;;;10.90;99.90;;;;;;5092862;28;20198;-52
2021/05/25 06:19:43;;;;;;;1.83;0.90;;;10.90;99.90;;;;;;5094066;28;20182;-49
2021/05/25 06:22:10;;;;;;;1.80;1.20;;;10.90;99.90;;;;;;5093790;28;20177;-47
2021/05/25 06:24:35;;;;;;;3.87;1.50;;;11.00;99.90;;;;;;5093041;28;20196;-47
2021/05/25 06:27:01;;;;;;;2.07;0.87;;;11.10;99.90;;;;;;5094223;28;20190;-46
2021/05/25 06:29:26;;;;;;;3.17;1.10;;;11.00;99.90;;;;;;5093203;28;20197;-48
2021/05/25 06:31:58;;;;;;;3.83;1.43;;;11.00;99.90;;;;;;5093915;28;20170;-46
2021/05/25 06:34:24;;;;;;;4.77;1.20;;;11.00;99.90;;;;;;5093539;28;20166;-48
2021/05/25 06:36:49;;;;;;;2.57;1.10;;;11.70;99.90;;;;;;5093158;28;20677;-48
2021/05/25 06:39:15;;;;;;;2.87;1.30;;;11.00;99.90;;;;;;5093731;28;20193;-54
2021/05/25 06:41:40;;;;;;;1.60;1.10;;;11.00;99.90;;;;;;5092895;28;20185;-48
2021/05/25 06:44:06;;;;;;;2.50;1.10;;;10.90;99.90;;;;;;5093903;28;20170;-46
2021/05/25 06:46:32;;;;;;;2.23;1.20;;;10.80;99.90;;;;;;5093620;28;20197;-51
2021/05/25 06:48:57;;;;;;;1.70;1.00;;;10.70;99.90;;;;;;5092645;28;20292;-48
2021/05/25 06:51:25;;;;;;;1.20;1.07;;;10.70;99.90;;;;;;5092579;28;20188;-48
2021/05/25 06:53:50;;;;;;;2.00;1.00;;;10.80;99.90;;;;;;5093387;28;20142;-47
2021/05/25 06:56:16;;;;;;;2.20;1.00;;;10.80;99.90;;;;;;5093723;28;20190;-51
2021/05/25 06:58:41;;;;;;;2.27;1.00;;;10.90;99.90;;;;;;5092632;28;20178;-49
2021/05/25 07:01:07;;;;;;;0.90;0.80;;;10.90;99.90;;;;;;5093376;28;20242;-46
2021/05/25 07:03:32;;;;;;;1.67;0.73;;;10.90;99.90;;;;;;5093806;28;20518;-51
2021/05/25 07:05:58;;;;;;;2.60;1.03;;;10.90;99.90;;;;;;5092871;28;20265;-49
2021/05/25 07:08:23;;;;;;;3.17;1.10;;;11.00;99.90;;;;;;5093759;28;20251;-48
2021/05/25 07:10:49;;;;;;;1.80;0.83;;;11.00;99.90;;;;;;5092787;28;20208;-48
2021/05/25 07:13:15;;;;;;;5.07;1.30;;;12.00;99.90;;;;;;5093034;28;20697;-54
2021/05/25 07:15:42;;;;;;;1.87;1.03;;;10.90;99.90;;;;;;5093431;28;20173;-50
2021/05/25 07:18:08;;;;;;;1.03;0.70;;;10.90;99.90;;;;;;5093573;28;20583;-47
2021/05/25 07:20:33;;;;;;;1.13;0.97;;;10.90;99.90;;;;;;5093423;28;20702;-48
2021/05/25 07:22:59;;;;;;;1.90;1.10;;;11.00;99.90;;;;;;5092382;28;20594;-48
2021/05/25 07:25:26;;;;;;;2.70;1.60;;;11.00;99.90;;;;;;5093309;28;20216;-50
2021/05/25 07:27:53;;;;;;;2.17;1.10;;;11.00;99.90;;;;;;5092327;28;20232;-51
2021/05/25 07:30:20;;;;;;;2.63;1.20;;;11.00;99.90;;;;;;5093419;28;20181;-54
2021/05/25 07:32:45;;;;;;;3.50;1.00;;;11.00;99.90;;;;;;5095351;28;20263;-50
2021/05/25 07:35:12;;;;;;;2.23;0.90;;;10.90;99.90;;;;;;5097007;28;20218;-48
2021/05/25 07:37:39;;;;;;;4.73;1.90;;;10.90;99.90;;;;;;5095634;28;20216;-53
2021/05/25 07:40:06;;;;;;;3.63;1.80;;;10.90;99.90;;;;;;5097094;28;20162;-47
2021/05/25 07:42:31;;;;;;;3.97;0.80;;;10.90;99.90;;;;;;5096142;28;20166;-50
2021/05/25 07:44:57;;;;;;;1.30;0.73;;;10.90;99.90;;;;;;5096796;28;20188;-50
2021/05/25 07:47:23;;;;;;;2.40;1.23;;;10.90;99.90;;;;;;5095342;28;20289;-48
2021/05/25 07:49:48;;;;;;;2.83;1.13;;;11.00;99.90;;;;;;5097008;28;20684;-47
2021/05/25 07:52:15;;;;;;;2.03;1.13;;;11.00;99.90;;;;;;5096539;28;20652;-47
2021/05/25 07:54:41;;;;;;;2.93;1.30;;;11.10;99.90;;;;;;5095996;28;20250;-48
2021/05/25 07:57:07;;;;;;;2.90;1.00;;;11.10;99.90;;;;;;5096332;28;20560;-50
2021/05/25 07:59:32;;;;;;;4.43;1.13;;;11.10;99.90;;;;;;5095017;28;20194;-49
2021/05/25 08:01:58;;;;;;;2.23;1.23;;;11.20;99.90;;;;;;5095683;28;20174;-54
2021/05/25 08:04:24;;;;;;;3.23;1.13;;;11.10;99.90;;;;;;5094530;28;20173;-49
2021/05/25 08:06:50;;;;;;;1.33;0.90;;;11.20;99.90;;;;;;5095748;28;20244;-49
2021/05/25 08:09:16;;;;;;;3.07;0.90;;;11.20;99.90;;;;;;5095916;28;20618;-47
2021/05/25 08:11:43;;;;;;;3.43;1.00;;;11.00;99.90;;;;;;5094366;28;20287;-49
2021/05/25 08:14:09;;;;;;;3.50;0.97;;;11.00;99.90;;;;;;5095913;28;20177;-49
2021/05/25 08:16:37;;;;;;;3.03;0.97;;;11.10;99.90;;;;;;5094630;28;20186;-49
2021/05/25 08:19:24;;;;;;;2.40;1.00;;;11.10;99.90;;;;;;5095732;28;20234;-47
2021/05/25 08:21:49;;;;;;;3.80;0.90;;;11.10;99.90;;;;;;5095342;28;20170;-48
2021/05/25 08:24:15;;;;;;;3.03;1.10;;;11.00;99.90;;;;;;5095861;28;20530;-49
2021/05/25 08:26:41;;;;;;;1.57;1.00;;;10.90;99.90;;;;;;5094510;28;20214;-47
2021/05/25 08:29:06;;;;;;;4.63;1.67;;;10.80;99.90;;;;;;5095152;28;20262;-50
2021/05/25 08:31:32;;;;;;;2.23;1.07;;;10.80;99.90;;;;;;5094519;28;20174;-49
2021/05/25 08:33:57;;;;;;;2.00;1.10;;;10.80;99.90;;;;;;5095893;28;20174;-49
2021/05/25 08:36:23;;;;;;;1.97;0.87;;;10.80;99.90;;;;;;5094696;28;20205;-50
2021/05/25 08:38:49;;;;;;;2.40;1.03;;;10.70;99.90;;;;;;5095699;28;20526;-50
2021/05/25 08:41:14;;;;;;;2.10;0.90;;;10.70;99.90;;;;;;5095378;28;20173;-52
2021/05/25 08:43:41;;;;;;;2.40;0.80;;;10.70;99.90;;;;;;5093618;28;20178;-52
2021/05/25 08:46:07;;;;;;;3.93;1.20;;;10.70;99.90;;;;;;5095573;28;20174;-50
2021/05/25 08:48:36;;;;;;;2.83;1.20;;;10.70;99.90;;;;;;5074047;28;20709;-49
2021/05/25 08:51:02;;;;;;;2.03;1.13;;;10.60;99.90;;;;;;5075214;28;20174;-50
2021/05/25 08:53:29;;;;;;;1.23;0.90;;;10.60;99.90;;;;;;5075071;28;20165;-53
2021/05/25 08:55:55;;;;;;;3.53;1.43;;;10.70;99.90;;;;;;5072758;28;20175;-50
2021/05/25 08:58:22;;;;;;;3.13;1.20;;;10.70;99.90;;;;;;5075210;28;20261;-50
2021/05/25 09:00:51;;;;;;;3.03;1.00;;;10.80;99.90;;;;;;5074730;28;20209;-49
2021/05/25 09:03:18;;;;;;;1.97;0.97;;;10.80;99.90;;;;;;5073485;28;20726;-50
2021/05/25 09:06:07;;;;;;;4.53;1.37;;;10.90;99.90;;;;;;5074520;28;20205;-50
2021/05/25 09:08:37;;;;;;;1.50;1.00;;;11.00;99.90;;;;;;5073448;28;20297;-50
2021/05/25 09:11:10;;;;;;;2.53;1.10;;;11.00;99.90;;;;;;5074117;28;20198;-51
2021/05/25 09:13:36;;;;;;;2.57;1.40;;;11.00;99.90;;;;;;5072937;28;20214;-49
2021/05/25 09:16:06;;;;;;;2.80;1.27;;;10.90;99.90;;;;;;5074103;28;20163;-49
2021/05/25 09:18:47;;;;;;;3.23;1.00;;;10.80;99.90;;;;;;5074387;28;20171;-48
2021/05/25 09:21:31;;;;;;;2.10;1.00;;;10.90;99.90;;;;;;5073600;28;20673;-47
2021/05/25 09:23:58;;;;;;;2.47;1.20;;;11.00;99.90;;;;;;5074585;28;20159;-47
2021/05/25 09:26:28;;;;;;;2.10;1.17;;;11.10;99.90;;;;;;5074053;28;20190;-52
2021/05/25 09:28:57;;;;;;;3.90;1.40;;;11.10;99.90;;;;;;5073514;28;20202;-50
2021/05/25 09:31:35;;;;;;;2.80;1.30;;;11.20;99.90;;;;;;5073606;28;20205;-48
2021/05/25 09:34:12;;;;;;;3.20;1.10;;;11.20;99.90;;;;;;5074438;28;20162;-48
2021/05/25 09:37:03;;;;;;;2.30;1.23;;;11.30;99.90;;;;;;5074272;28;20243;-51
2021/05/25 09:39:31;;;;;;;1.60;1.00;;;11.20;99.90;;;;;;5073306;28;20186;-48
2021/05/25 09:42:04;;;;;;;2.23;1.30;;;11.20;99.90;;;;;;5074039;28;20223;-55
2021/05/25 09:44:30;;;;;;;3.60;1.30;;;11.30;99.90;;;;;;5073379;28;20197;-54
2021/05/25 09:47:01;;;;;;;2.70;1.00;;;11.30;99.90;;;;;;5078846;28;20225;-49
2021/05/25 09:49:27;;;;;;;2.20;1.30;;;11.40;99.90;;;;;;5093117;28;20201;-49
2021/05/25 09:52:06;;;;;;;2.53;1.30;;;11.50;99.90;;;;;;5092133;28;20181;-50
2021/05/25 09:54:33;;;;;;;4.60;1.20;;;11.70;99.90;;;;;;5093361;28;20177;-49
2021/05/25 09:57:01;;;;;;;2.60;1.13;;;11.70;99.90;;;;;;5093045;28;20196;-49
2021/05/25 09:59:31;;;;;;;2.57;1.00;;;11.70;99.90;;;;;;5093497;28;20181;-54
2021/05/25 10:02:14;;;;;;;2.67;1.40;;;11.80;99.90;;;;;;5092410;28;20185;-56
2021/05/25 10:04:56;;;;;;;3.90;1.37;;;11.80;99.90;;;;;;5093257;28;20189;-47
2021/05/25 10:07:23;;;;;;;3.03;1.30;;;11.90;99.90;;;;;;5093286;28;20197;-49
2021/05/25 10:09:49;;;;;;;2.90;1.43;;;12.00;99.90;;;;;;5094234;28;20204;-49
2021/05/25 10:12:17;;;;;;;2.60;1.10;;;12.30;99.90;;;;;;5092770;28;20186;-48
2021/05/25 10:14:43;;;;;;;4.47;1.20;;;12.30;99.90;;;;;;5093753;28;20162;-49
2021/05/25 10:17:19;;;;;;;2.93;1.33;;;12.40;99.90;;;;;;5093591;28;20706;-53
2021/05/25 10:19:46;;;;;;;2.57;1.20;;;12.60;99.90;;;;;;5092805;28;20177;-48
2021/05/25 10:22:11;;;;;;;3.13;1.20;;;12.60;99.90;;;;;;5092915;28;20177;-51
2021/05/25 10:24:37;;;;;;;2.00;1.10;;;12.50;99.90;;;;;;5091947;28;20165;-50
2021/05/25 10:27:03;;;;;;;1.90;1.13;;;12.50;99.90;;;;;;5093563;28;20546;-48
2021/05/25 10:29:28;;;;;;;2.20;1.10;;;12.30;99.90;;;;;;5091778;28;20213;-49
2021/05/25 10:32:00;;;;;;;5.53;1.33;;;12.40;99.90;;;;;;5093559;28;20715;-53
2021/05/25 10:34:33;;;;;;;2.97;1.43;;;13.40;99.90;;;;;;5092342;28;20655;-50
2021/05/25 10:37:02;;;;;;;3.87;1.43;;;12.50;99.90;;;;;;5092035;28;20197;-47
2021/05/25 10:39:34;;;;;;;2.87;1.10;;;12.50;99.90;;;;;;5091907;28;20190;-47
2021/05/25 10:42:31;;;;;;;3.83;1.40;;;12.60;99.90;;;;;;5087164;28;20630;-50
2021/05/25 10:45:10;;;;;;;2.23;1.20;;;12.70;99.90;;;;;;5092196;28;20684;-49
2021/05/25 10:47:38;;;;;;;3.53;1.00;;;12.80;99.90;;;;;;5092422;28;20189;-51
2021/05/25 10:52:55;;;;;;;1.40;0.73;;;13.00;99.90;;;;;;5090191;28;20239;-55
2021/05/25 10:55:38;;;;;;;1.90;1.07;;;13.00;99.90;;;;;;5090139;28;20181;-48
2021/05/25 10:58:30;;;;;;;1.90;0.90;;;12.80;99.90;;;;;;5090822;28;20217;-49
2021/05/25 11:00:57;;;;;;;0.97;0.60;;;12.50;99.90;;;;;;5091462;28;20170;-49
2021/05/25 11:03:23;;;;;;;3.30;1.20;;;12.60;99.90;;;;;;5091132;28;20685;-47
2021/05/25 11:05:51;;;;;;;2.60;0.90;;;12.90;99.90;;;;;;5090836;28;20823;-48
2021/05/25 11:08:17;;;;;;;1.27;0.87;;;13.20;99.90;;;;;;5094464;28;20205;-50
2021/05/25 11:10:53;;;;;;;1.83;0.67;;;13.40;99.90;;;;;;5095775;28;20160;-50
2021/05/25 11:13:25;;;;;;;1.83;0.90;;;13.50;99.90;;;;;;5096125;28;20183;-54
2021/05/25 11:16:09;;;;;;;2.33;0.80;;;13.50;99.90;;;;;;5095160;28;20181;-47
2021/05/25 11:24:27;;;;;;;1.33;0.80;;;13.20;99.90;;;;;;5094443;28;20182;-53
2021/05/25 11:26:56;;;;;;;2.80;1.00;;;13.00;99.90;;;;;;5097933;28;20227;-45
2021/05/25 11:29:24;;;;;;;2.17;0.80;;;12.90;99.90;;;;;;5097404;28;20205;-48
2021/05/25 11:31:49;;;;;;;2.47;1.10;;;12.90;99.90;;;;;;5097333;28;20179;-49
2021/05/25 11:34:19;;;;;;;2.20;0.90;;;12.80;99.90;;;;;;5097217;28;20174;-47
2021/05/25 11:36:44;;;;;;;1.60;0.83;;;12.80;99.90;;;;;;5095985;28;20197;-52
2021/05/25 11:39:11;;;;;;;1.90;0.93;;;13.00;99.90;;;;;;5097095;28;20187;-49
2021/05/25 11:41:38;;;;;;;4.10;1.20;;;13.10;99.90;;;;;;5081374;28;20190;-53
2021/05/25 11:44:05;;;;;;;2.37;0.90;;;13.10;99.90;;;;;;5075003;28;20195;-50
2021/05/25 11:46:45;;;;;;;3.13;1.10;;;13.30;99.90;;;;;;5075556;28;20208;-49
2021/05/25 11:49:13;;;;;;;1.30;0.90;;;13.30;99.90;;;;;;5076481;28;20213;-49
2021/05/25 11:51:40;;;;;;;2.60;1.00;;;13.40;99.90;;;;;;5075678;28;20191;-47
2021/05/25 11:54:11;;;;;;;2.00;0.93;;;13.40;99.90;;;;;;5076291;28;20166;-49
2021/05/25 11:56:38;;;;;;;5.37;1.50;;;13.40;99.90;;;;;;5076612;28;20280;-49
2021/05/25 11:59:04;;;;;;;3.03;1.40;;;13.40;99.90;;;;;;5075716;28;20183;-56
2021/05/25 12:01:45;;;;;;;6.13;1.57;;;13.30;99.90;;;;;;5075789;28;20275;-52
2021/05/25 12:04:11;;;;;;;5.47;1.40;;;13.30;99.90;;;;;;5075770;28;20164;-51
2021/05/25 12:06:53;;;;;;;5.13;1.30;;;13.30;99.90;;;;;;5075393;28;20206;-50
2021/05/25 12:09:20;;;;;;;3.97;1.30;;;13.30;99.90;;;;;;5074349;28;20210;-51
2021/05/25 12:11:47;;;;;;;4.27;1.10;;;13.30;99.90;;;;;;5076340;28;20212;-54
2021/05/25 12:14:14;;;;;;;2.60;1.03;;;13.40;99.90;;;;;;5075260;28;20180;-49
2021/05/25 12:16:42;;;;;;;3.37;1.00;;;13.40;99.90;;;;;;5076127;28;20221;-55
2021/05/25 12:19:08;;;;;;;2.13;1.17;;;13.30;99.90;;;;;;5073873;28;20542;-48
2021/05/25 12:21:36;;;;;;;2.10;1.03;;;13.30;99.90;;;;;;5073589;28;20188;-50
2021/05/25 12:24:03;;;;;;;4.00;1.17;;;13.40;99.90;;;;;;5073862;28;20179;-48
2021/05/25 12:26:28;;;;;;;2.30;1.10;;;13.50;99.90;;;;;;5073628;28;20754;-48
2021/05/25 12:28:56;;;;;;;2.97;1.40;;;13.50;99.90;;;;;;5074221;28;20200;-51
2021/05/25 12:31:27;;;;;;;3.97;1.60;;;13.50;99.90;;;;;;5074129;28;20183;-53
2021/05/25 12:33:53;;;;;;;4.00;1.60;;;13.30;99.90;;;;;;5074133;28;20178;-50
2021/05/25 12:36:24;;;;;;;2.80;1.20;;;13.10;99.90;;;;;;5074738;28;20212;-49
2021/05/25 12:39:15;;;;;;;2.50;1.37;;;13.00;99.90;;;;;;5075296;28;20233;-49
2021/05/25 12:41:51;;;;;;;3.03;1.17;;;12.80;99.90;;;;;;5074129;28;20209;-48
2021/05/25 12:44:31;;;;;;;3.10;1.43;;;12.70;99.90;;;;;;5075722;28;20182;-48
2021/05/25 12:47:05;;;;;;;3.43;1.37;;;12.70;99.90;;;;;;5094056;28;20300;-52
2021/05/25 12:49:36;;;;;;;3.43;1.40;;;12.70;99.90;;;;;;5095197;28;20202;-51
2021/05/25 12:52:25;;;;;;;4.67;1.63;;;12.90;99.90;;;;;;5095298;28;20637;-47
2021/05/25 12:55:12;;;;;;;8.07;6.63;;;12.90;99.90;;;;;;5094949;28;20178;-47
2021/05/25 12:57:44;;;;;;;14.87;12.20;;;12.90;99.90;;;;;;5095268;28;20194;-48
2021/05/25 13:00:12;;;;;;;4.37;1.97;;;12.90;99.90;;;;;;5095431;28;20264;-49